sensor_id;sensor_type;location;lat;lon;timestamp;pressure;altitude;pressure_sealevel;temperature;humidity
35952;BME280;22035;51.406;16.194;2023-02-02T00:01:54;99249.63;;;32.39;21.50
35952;BME280;22035;51.406;16.194;2023-02-02T00:04:22;99242.03;;;32.42;21.47
35952;BME280;22035;51.406;16.194;2023-02-02T00:06:48;99236.04;;;32.31;21.62
35952;BME280;22035;51.406;16.194;2023-02-02T00:09:19;99236.63;;;32.30;21.62
35952;BME280;22035;51.406;16.194;2023-02-02T00:11:49;99236.87;;;32.29;21.69
35952;BME280;22035;51.406;16.194;2023-02-02T00:14:19;99236.57;;;32.31;21.66
35952;BME280;22035;51.406;16.194;2023-02-02T00:16:49;99225.31;;;32.18;21.85
35952;BME280;22035;51.406;16.194;2023-02-02T00:19:20;99225.85;;;32.23;21.83
35952;BME280;22035;51.406;16.194;2023-02-02T00:21:49;99228.17;;;32.22;22.82
35952;BME280;22035;51.406;16.194;2023-02-02T00:24:18;99217.80;;;32.21;22.54
35952;BME280;22035;51.406;16.194;2023-02-02T00:26:47;99231.06;;;32.11;22.71
35952;BME280;22035;51.406;16.194;2023-02-02T00:29:16;99223.88;;;32.09;22.75
35952;BME280;22035;51.406;16.194;2023-02-02T00:31:43;99227.19;;;32.14;22.76
35952;BME280;22035;51.406;16.194;2023-02-02T00:34:10;99233.92;;;32.17;22.57
35952;BME280;22035;51.406;16.194;2023-02-02T00:36:36;99233.88;;;32.07;22.69
35952;BME280;22035;51.406;16.194;2023-02-02T00:39:01;99239.38;;;32.11;22.51
35952;BME280;22035;51.406;16.194;2023-02-02T00:41:27;99240.51;;;32.03;22.58
35952;BME280;22035;51.406;16.194;2023-02-02T00:43:53;99244.40;;;32.07;22.33
35952;BME280;22035;51.406;16.194;2023-02-02T00:46:19;99239.64;;;32.02;22.31
35952;BME280;22035;51.406;16.194;2023-02-02T00:48:44;99244.21;;;31.76;22.63
35952;BME280;22035;51.406;16.194;2023-02-02T00:51:10;99246.66;;;31.81;22.62
35952;BME280;22035;51.406;16.194;2023-02-02T00:53:36;99239.75;;;31.89;22.42
35952;BME280;22035;51.406;16.194;2023-02-02T00:56:01;99242.40;;;32.05;22.31
35952;BME280;22035;51.406;16.194;2023-02-02T00:58:27;99241.81;;;32.01;22.38
35952;BME280;22035;51.406;16.194;2023-02-02T01:00:53;99245.03;;;32.03;22.34
35952;BME280;22035;51.406;16.194;2023-02-02T01:03:18;99249.67;;;32.03;22.34
35952;BME280;22035;51.406;16.194;2023-02-02T01:05:44;99239.95;;;31.99;22.40
35952;BME280;22035;51.406;16.194;2023-02-02T01:08:10;99238.87;;;31.94;22.54
35952;BME280;22035;51.406;16.194;2023-02-02T01:10:36;99236.70;;;31.84;22.53
35952;BME280;22035;51.406;16.194;2023-02-02T01:13:01;99229.80;;;31.84;22.65
35952;BME280;22035;51.406;16.194;2023-02-02T01:15:27;99216.47;;;31.89;22.43
35952;BME280;22035;51.406;16.194;2023-02-02T01:17:53;99218.50;;;31.80;22.85
35952;BME280;22035;51.406;16.194;2023-02-02T01:20:19;99212.26;;;31.57;23.08
35952;BME280;22035;51.406;16.194;2023-02-02T01:22:45;99214.87;;;31.61;22.88
35952;BME280;22035;51.406;16.194;2023-02-02T01:25:12;99207.35;;;31.56;22.96
35952;BME280;22035;51.406;16.194;2023-02-02T01:27:37;99203.33;;;31.46;23.02
35952;BME280;22035;51.406;16.194;2023-02-02T01:30:04;99199.68;;;31.43;23.01
35952;BME280;22035;51.406;16.194;2023-02-02T01:32:30;99196.28;;;31.35;23.11
35952;BME280;22035;51.406;16.194;2023-02-02T01:34:55;99195.35;;;31.35;23.13
35952;BME280;22035;51.406;16.194;2023-02-02T01:37:21;99193.49;;;31.66;22.79
35952;BME280;22035;51.406;16.194;2023-02-02T01:39:47;99189.34;;;31.63;22.89
35952;BME280;22035;51.406;16.194;2023-02-02T01:42:14;99185.24;;;31.44;23.21
35952;BME280;22035;51.406;16.194;2023-02-02T01:45:06;99179.50;;;31.44;23.21
35952;BME280;22035;51.406;16.194;2023-02-02T01:47:41;99176.22;;;31.50;23.20
35952;BME280;22035;51.406;16.194;2023-02-02T01:50:09;99165.96;;;31.41;23.21
35952;BME280;22035;51.406;16.194;2023-02-02T01:52:37;99168.57;;;31.42;23.19
35952;BME280;22035;51.406;16.194;2023-02-02T01:55:08;99172.17;;;31.41;23.18
35952;BME280;22035;51.406;16.194;2023-02-02T01:57:36;99181.08;;;31.43;23.31
35952;BME280;22035;51.406;16.194;2023-02-02T02:00:06;99180.09;;;31.37;23.20
35952;BME280;22035;51.406;16.194;2023-02-02T02:02:33;99176.70;;;31.39;23.22
35952;BME280;22035;51.406;16.194;2023-02-02T02:05:00;99169.87;;;31.32;23.53
35952;BME280;22035;51.406;16.194;2023-02-02T02:07:26;99174.69;;;31.30;23.60
35952;BME280;22035;51.406;16.194;2023-02-02T02:09:52;99172.49;;;31.51;23.27
35952;BME280;22035;51.406;16.194;2023-02-02T02:12:18;99174.09;;;31.47;23.40
35952;BME280;22035;51.406;16.194;2023-02-02T02:14:47;99169.25;;;31.36;23.40
35952;BME280;22035;51.406;16.194;2023-02-02T02:17:24;99166.93;;;31.30;23.40
35952;BME280;22035;51.406;16.194;2023-02-02T02:20:16;99160.85;;;31.36;23.24
35952;BME280;22035;51.406;16.194;2023-02-02T02:22:58;99167.19;;;31.42;23.54
35952;BME280;22035;51.406;16.194;2023-02-02T02:25:45;99153.47;;;31.44;23.41
35952;BME280;22035;51.406;16.194;2023-02-02T02:28:43;99170.90;;;31.40;23.54
35952;BME280;22035;51.406;16.194;2023-02-02T02:31:34;99161.83;;;31.30;23.60
35952;BME280;22035;51.406;16.194;2023-02-02T02:34:06;99155.21;;;31.48;23.37
35952;BME280;22035;51.406;16.194;2023-02-02T02:36:42;99158.34;;;31.49;23.63
35952;BME280;22035;51.406;16.194;2023-02-02T02:39:14;99156.72;;;31.56;23.30
35952;BME280;22035;51.406;16.194;2023-02-02T02:41:45;99152.13;;;31.57;23.17
35952;BME280;22035;51.406;16.194;2023-02-02T02:44:15;99154.58;;;31.55;23.22
35952;BME280;22035;51.406;16.194;2023-02-02T02:46:41;99139.04;;;31.56;23.47
35952;BME280;22035;51.406;16.194;2023-02-02T02:49:09;99132.68;;;31.33;23.64
35952;BME280;22035;51.406;16.194;2023-02-02T02:51:43;99121.27;;;31.32;23.50
35952;BME280;22035;51.406;16.194;2023-02-02T02:54:09;99120.77;;;31.39;23.46
35952;BME280;22035;51.406;16.194;2023-02-02T02:56:43;99119.47;;;31.32;23.51
35952;BME280;22035;51.406;16.194;2023-02-02T02:59:20;99123.21;;;31.30;23.40
35952;BME280;22035;51.406;16.194;2023-02-02T03:01:56;99125.39;;;31.34;23.48
35952;BME280;22035;51.406;16.194;2023-02-02T03:04:27;99109.66;;;31.36;23.63
35952;BME280;22035;51.406;16.194;2023-02-02T03:07:03;99115.36;;;31.31;23.56
35952;BME280;22035;51.406;16.194;2023-02-02T03:09:33;99121.50;;;31.26;23.57
35952;BME280;22035;51.406;16.194;2023-02-02T03:12:01;99114.81;;;31.37;23.39
35952;BME280;22035;51.406;16.194;2023-02-02T03:14:27;99111.34;;;31.32;23.33
35952;BME280;22035;51.406;16.194;2023-02-02T03:16:53;99101.28;;;31.40;23.40
35952;BME280;22035;51.406;16.194;2023-02-02T03:19:19;99114.43;;;31.44;23.29
35952;BME280;22035;51.406;16.194;2023-02-02T03:21:45;99111.26;;;31.36;23.41
35952;BME280;22035;51.406;16.194;2023-02-02T03:24:11;99100.76;;;31.35;23.30
35952;BME280;22035;51.406;16.194;2023-02-02T03:26:36;99105.55;;;31.38;23.35
35952;BME280;22035;51.406;16.194;2023-02-02T03:29:02;99107.52;;;31.27;23.65
35952;BME280;22035;51.406;16.194;2023-02-02T03:31:28;99102.70;;;31.28;23.34
35952;BME280;22035;51.406;16.194;2023-02-02T03:33:54;99100.17;;;31.34;23.39
35952;BME280;22035;51.406;16.194;2023-02-02T03:36:21;99089.51;;;31.27;23.42
35952;BME280;22035;51.406;16.194;2023-02-02T03:38:47;99102.05;;;31.40;23.43
35952;BME280;22035;51.406;16.194;2023-02-02T03:41:13;99100.11;;;31.36;23.39
35952;BME280;22035;51.406;16.194;2023-02-02T03:43:38;99085.25;;;31.37;23.29
35952;BME280;22035;51.406;16.194;2023-02-02T03:46:05;99095.97;;;31.33;23.47
35952;BME280;22035;51.406;16.194;2023-02-02T03:48:34;99092.24;;;31.31;23.35
35952;BME280;22035;51.406;16.194;2023-02-02T03:51:04;99094.85;;;31.31;23.38
35952;BME280;22035;51.406;16.194;2023-02-02T03:53:30;99096.51;;;31.30;23.32
35952;BME280;22035;51.406;16.194;2023-02-02T03:55:55;99101.37;;;31.31;23.24
35952;BME280;22035;51.406;16.194;2023-02-02T03:58:21;99099.11;;;31.28;23.29
35952;BME280;22035;51.406;16.194;2023-02-02T04:00:47;99078.46;;;31.33;23.14
35952;BME280;22035;51.406;16.194;2023-02-02T04:03:13;99090.23;;;31.27;23.17
35952;BME280;22035;51.406;16.194;2023-02-02T04:05:38;99096.46;;;31.29;23.11
35952;BME280;22035;51.406;16.194;2023-02-02T04:08:04;99104.53;;;31.33;23.13
35952;BME280;22035;51.406;16.194;2023-02-02T04:10:30;99094.26;;;31.14;23.26
35952;BME280;22035;51.406;16.194;2023-02-02T04:12:56;99113.68;;;30.91;23.43
35952;BME280;22035;51.406;16.194;2023-02-02T04:15:21;99103.35;;;30.99;23.28
35952;BME280;22035;51.406;16.194;2023-02-02T04:17:47;99102.80;;;31.02;23.21
35952;BME280;22035;51.406;16.194;2023-02-02T04:20:13;99105.71;;;30.97;23.24
35952;BME280;22035;51.406;16.194;2023-02-02T04:22:39;99105.90;;;30.88;23.29
35952;BME280;22035;51.406;16.194;2023-02-02T04:25:05;99088.94;;;31.04;23.24
35952;BME280;22035;51.406;16.194;2023-02-02T04:27:31;99095.40;;;31.00;23.28
35952;BME280;22035;51.406;16.194;2023-02-02T04:29:57;99097.03;;;30.94;23.32
35952;BME280;22035;51.406;16.194;2023-02-02T04:32:22;99111.32;;;31.06;23.19
35952;BME280;22035;51.406;16.194;2023-02-02T04:34:48;99093.61;;;30.86;23.37
35952;BME280;22035;51.406;16.194;2023-02-02T04:37:14;99100.36;;;30.93;23.25
35952;BME280;22035;51.406;16.194;2023-02-02T04:39:39;99112.54;;;30.88;23.27
35952;BME280;22035;51.406;16.194;2023-02-02T04:42:05;99111.49;;;30.86;23.37
35952;BME280;22035;51.406;16.194;2023-02-02T04:44:31;99112.71;;;30.85;23.37
35952;BME280;22035;51.406;16.194;2023-02-02T04:46:56;99116.41;;;30.92;23.20
35952;BME280;22035;51.406;16.194;2023-02-02T04:49:22;99128.60;;;30.99;23.14
35952;BME280;22035;51.406;16.194;2023-02-02T04:51:48;99126.29;;;31.03;23.30
35952;BME280;22035;51.406;16.194;2023-02-02T04:54:13;99134.44;;;31.01;24.00
35952;BME280;22035;51.406;16.194;2023-02-02T04:56:39;99135.98;;;31.11;23.66
35952;BME280;22035;51.406;16.194;2023-02-02T04:59:05;99138.22;;;31.05;23.85
35952;BME280;22035;51.406;16.194;2023-02-02T05:01:31;99134.97;;;31.11;23.58
35952;BME280;22035;51.406;16.194;2023-02-02T05:03:57;99128.60;;;31.09;23.62
35952;BME280;22035;51.406;16.194;2023-02-02T05:06:23;99137.01;;;31.02;23.69
35952;BME280;22035;51.406;16.194;2023-02-02T05:08:48;99143.47;;;31.02;23.55
35952;BME280;22035;51.406;16.194;2023-02-02T05:11:16;99144.76;;;31.11;23.47
35952;BME280;22035;51.406;16.194;2023-02-02T05:13:45;99147.53;;;31.06;23.47
35952;BME280;22035;51.406;16.194;2023-02-02T05:16:11;99146.04;;;31.08;23.52
35952;BME280;22035;51.406;16.194;2023-02-02T05:18:36;99153.19;;;31.02;23.65
35952;BME280;22035;51.406;16.194;2023-02-02T05:21:02;99150.73;;;31.08;23.59
35952;BME280;22035;51.406;16.194;2023-02-02T05:23:28;99146.19;;;31.09;23.46
35952;BME280;22035;51.406;16.194;2023-02-02T05:25:55;99160.16;;;31.03;23.53
35952;BME280;22035;51.406;16.194;2023-02-02T05:28:21;99160.05;;;30.98;23.62
35952;BME280;22035;51.406;16.194;2023-02-02T05:30:47;99160.23;;;31.02;23.30
35952;BME280;22035;51.406;16.194;2023-02-02T05:33:13;99145.76;;;30.92;23.41
35952;BME280;22035;51.406;16.194;2023-02-02T05:35:39;99176.78;;;30.91;23.41
35952;BME280;22035;51.406;16.194;2023-02-02T05:38:05;99173.78;;;30.84;23.59
35952;BME280;22035;51.406;16.194;2023-02-02T05:40:31;99174.96;;;30.90;23.63
35952;BME280;22035;51.406;16.194;2023-02-02T05:42:56;99174.71;;;30.99;23.44
35952;BME280;22035;51.406;16.194;2023-02-02T05:45:22;99182.99;;;30.98;23.80
